Time;durP1;ratioP1;P1;durP2;ratioP2;P2;SDS_P1;SDS_P2;PMS_P1;PMS_P2;Temp;Humidity;BMP_temperature;BMP_pressure;BME280_temperature;BME280_humidity;BME280_pressure;Samples;Min_cycle;Max_cycle;Signal;HPM_P1;HPM_P2
2022/02/13 00:02:10;;;;;;;100.40;54.22;;;154.50;2252.80;;;;;;4880462;29;20044;-81
2022/02/13 00:05:10;;;;;;;151.18;79.35;;;154.50;2252.80;;;;;;4880943;29;20045;-83
2022/02/13 00:08:49;;;;;;;109.60;59.30;;;154.40;2252.80;;;;;;4882989;29;20044;-81
2022/02/13 00:11:40;;;;;;;79.30;47.28;;;154.40;2252.80;;;;;;4864818;29;20507;-83
2022/02/13 00:15:05;;;;;;;87.80;46.92;;;154.40;2252.80;;;;;;4874524;29;20037;-83
2022/02/13 00:18:17;;;;;;;108.63;59.88;;;154.40;2252.80;;;;;;4788400;30;20114;-82
2022/02/13 00:21:13;;;;;;;54.38;33.78;;;154.30;2252.80;;;;;;4765384;30;20038;-83
2022/02/13 00:24:28;;;;;;;65.18;37.72;;;154.10;2252.80;;;;;;4770471;30;20024;-82
2022/02/13 00:27:19;;;;;;;82.18;47.38;;;154.10;2252.80;;;;;;4752528;30;20039;-82
2022/02/13 00:30:47;;;;;;;116.00;59.22;;;154.10;2252.80;;;;;;4718922;30;20041;-82
2022/02/13 00:33:57;;;;;;;66.90;39.90;;;154.10;2252.80;;;;;;4733685;30;20360;-82
2022/02/13 00:36:41;;;;;;;53.95;29.08;;;154.10;2252.80;;;;;;4734757;30;20048;-79
2022/02/13 00:40:24;;;;;;;49.05;28.50;;;154.00;2252.80;;;;;;4755621;30;20039;-83
2022/02/13 00:51:32;;;;;;;118.75;61.75;;;153.90;2252.80;;;;;;4724599;30;20044;-82
2022/02/13 00:57:44;;;;;;;163.50;90.88;;;153.80;2252.80;;;;;;4742083;30;20098;-77
2022/02/13 01:00:14;;;;;;;114.57;62.42;;;153.80;2252.80;;;;;;4713299;30;20036;-77
2022/02/13 01:02:42;;;;;;;132.90;72.55;;;153.90;2252.80;;;;;;4804302;29;20132;-76
2022/02/13 01:05:09;;;;;;;115.80;58.17;;;153.80;2252.80;;;;;;4828877;29;20034;-77
2022/02/13 01:07:46;;;;;;;94.57;44.30;;;153.90;2252.80;;;;;;4830453;29;20022;-80
2022/02/13 01:10:13;;;;;;;101.00;44.10;;;154.10;2252.80;;;;;;4833743;29;20525;-79
2022/02/13 01:13:05;;;;;;;78.15;37.83;;;154.10;2252.80;;;;;;4832704;29;20037;-81
2022/02/13 01:15:33;;;;;;;49.25;28.52;;;154.20;2252.80;;;;;;4870366;29;20052;-79
2022/02/13 01:18:20;;;;;;;75.20;38.15;;;154.10;2252.80;;;;;;4886708;29;20176;-80
2022/02/13 01:20:53;;;;;;;60.30;32.28;;;154.10;2252.80;;;;;;4885253;29;20377;-82
2022/02/13 01:31:12;;;;;;;67.90;39.38;;;153.70;2252.80;;;;;;4856199;29;20078;-81
2022/02/13 01:38:12;;;;;;;78.97;44.88;;;153.90;2252.80;;;;;;4766560;30;20036;-82
2022/02/13 01:42:09;;;;;;;149.45;78.93;;;154.00;2252.80;;;;;;4757597;30;20033;-81
2022/02/13 01:48:34;;;;;;;94.30;52.75;;;154.00;2252.80;;;;;;4745926;30;20299;-81
2022/02/13 01:55:09;;;;;;;85.30;42.88;;;153.80;2252.80;;;;;;4716336;30;20040;-78
2022/02/13 02:02:27;;;;;;;45.65;27.20;;;153.90;2252.80;;;;;;4672784;30;20697;-80
2022/02/13 02:24:56;;;;;;;56.08;30.40;;;128.90;2252.80;;;;;;4712365;30;20186;-81
2022/02/13 02:28:33;;;;;;;84.97;42.55;;;128.80;2252.80;;;;;;4707061;30;20063;-82
2022/02/13 02:32:16;;;;;;;105.93;58.25;;;128.80;2252.80;;;;;;4715916;30;20041;-81
2022/02/13 02:35:51;;;;;;;126.75;60.03;;;128.90;2252.80;;;;;;4696059;30;20050;-81
2022/02/13 02:39:43;;;;;;;77.72;41.08;;;128.90;2252.80;;;;;;4661332;30;20051;-81
2022/02/13 03:22:27;;;;;;;40.72;23.15;;;128.50;2252.80;;;;;;4868041;29;20036;-81
2022/02/13 03:32:33;;;;;;;37.45;24.88;;;128.50;2252.80;;;;;;4814860;29;20110;-81
2022/02/13 03:40:02;;;;;;;31.02;18.63;;;128.60;2252.80;;;;;;4806989;29;20125;-81
2022/02/13 03:46:30;;;;;;;38.70;22.33;;;128.70;2252.80;;;;;;4776986;30;20054;-82
2022/02/13 04:04:16;;;;;;;39.17;25.83;;;128.60;2252.80;;;;;;4721448;30;20093;-82
2022/02/13 04:31:59;;;;;;;40.97;23.65;;;153.60;2252.80;;;;;;4735739;30;20076;-82
2022/02/13 04:45:50;;;;;;;34.92;22.27;;;128.80;2252.80;;;;;;4702721;30;20066;-82
2022/02/13 04:52:39;;;;;;;35.00;22.80;;;128.80;2252.80;;;;;;4653692;30;20403;-80
2022/02/13 05:53:22;;;;;;;56.23;31.70;;;128.40;2252.80;;;;;;4702209;30;20060;-82
2022/02/13 06:00:06;;;;;;;70.05;37.70;;;128.40;2252.80;;;;;;4688761;30;20212;-82
2022/02/13 06:04:04;;;;;;;74.82;39.55;;;128.50;2252.80;;;;;;4669642;30;20034;-81
2022/02/13 06:07:24;;;;;;;71.68;40.03;;;128.50;2252.80;;;;;;4651655;30;20030;-82
2022/02/13 06:14:00;;;;;;;86.20;45.28;;;128.60;2252.80;;;;;;4618254;31;20075;-82
2022/02/13 06:31:44;;;;;;;68.70;41.83;;;153.60;2252.80;;;;;;4607027;31;20588;-82
2022/02/13 06:35:18;;;;;;;90.00;54.80;;;153.70;2252.80;;;;;;4675508;30;20042;-80
2022/02/13 06:45:36;;;;;;;152.52;94.95;;;128.70;2252.80;;;;;;4685782;30;20083;-82
2022/02/13 06:48:59;;;;;;;98.35;61.72;;;128.70;2252.80;;;;;;4669552;30;20046;-82
2022/02/13 06:56:03;;;;;;;101.03;68.63;;;153.70;2252.80;;;;;;4637764;31;20106;-81
2022/02/13 06:59:41;;;;;;;146.45;89.60;;;153.80;2252.80;;;;;;4658995;30;20034;-81
2022/02/13 07:02:48;;;;;;;152.98;92.63;;;153.80;2252.80;;;;;;4658411;30;20033;-81
2022/02/13 07:06:22;;;;;;;140.38;83.75;;;128.90;2252.80;;;;;;4659340;30;20042;-81
2022/02/13 07:09:09;;;;;;;141.13;86.78;;;153.60;2252.80;;;;;;4677790;30;20096;-81
2022/02/13 07:12:04;;;;;;;136.38;80.30;;;128.90;2252.80;;;;;;4689357;30;20041;-82
2022/02/13 07:14:46;;;;;;;128.82;74.00;;;153.60;2252.80;;;;;;4751019;30;20044;-80
2022/02/13 07:17:13;;;;;;;111.97;70.95;;;153.80;2252.80;;;;;;4726353;30;20041;-81
2022/02/13 07:19:44;;;;;;;122.85;73.85;;;153.80;2252.80;;;;;;4766532;29;20047;-79
2022/02/13 07:22:10;;;;;;;136.77;79.78;;;153.90;2252.80;;;;;;4793564;30;20130;-79
2022/02/13 07:24:40;;;;;;;112.43;75.57;;;154.00;2252.80;;;;;;4839644;29;20034;-82
2022/02/13 07:27:10;;;;;;;88.60;57.30;;;154.10;2252.80;;;;;;4851992;29;20629;-78
2022/02/13 07:29:36;;;;;;;98.28;65.40;;;154.10;2252.80;;;;;;4834535;29;20111;-79
2022/02/13 07:32:03;;;;;;;82.72;54.17;;;154.20;2252.80;;;;;;4833295;29;20427;-80
2022/02/13 07:34:30;;;;;;;76.50;49.85;;;154.20;2252.80;;;;;;4831317;29;20101;-79
2022/02/13 07:37:01;;;;;;;114.88;75.95;;;154.30;2252.80;;;;;;4832086;29;20046;-80
2022/02/13 07:39:29;;;;;;;64.65;44.15;;;154.10;2252.80;;;;;;4832890;29;20026;-80
2022/02/13 07:41:56;;;;;;;57.80;38.28;;;154.00;2252.80;;;;;;4832081;29;20054;-79
2022/02/13 07:44:48;;;;;;;50.90;33.80;;;154.00;2252.80;;;;;;4869810;29;20040;-81
2022/02/13 07:47:22;;;;;;;53.45;36.28;;;154.00;2252.80;;;;;;4870561;29;20033;-82
2022/02/13 07:49:51;;;;;;;59.38;38.65;;;154.10;2252.80;;;;;;4854599;29;20469;-83
2022/02/13 07:53:01;;;;;;;66.10;41.47;;;154.20;2252.80;;;;;;4853556;29;20045;-80
2022/02/13 07:55:55;;;;;;;51.60;32.22;;;154.40;2252.80;;;;;;4870619;29;20029;-82
2022/02/13 07:58:24;;;;;;;41.60;31.23;;;179.20;2252.80;;;;;;4867872;29;20038;-81
2022/02/13 08:01:02;;;;;;;43.97;28.77;;;179.40;2252.80;;;;;;4864898;29;20033;-83
2022/02/13 08:03:49;;;;;;;51.03;31.73;;;179.30;2252.80;;;;;;4867839;29;20037;-82
2022/02/13 08:06:17;;;;;;;45.10;30.95;;;179.40;2252.80;;;;;;4879785;29;20021;-80
2022/02/13 08:09:52;;;;;;;37.40;26.10;;;180.10;2252.80;;;;;;4862869;29;20025;-83
2022/02/13 08:15:44;;;;;;;56.63;37.42;;;179.70;2252.80;;;;;;4863076;29;20390;-82
2022/02/13 08:18:48;;;;;;;99.65;58.58;;;179.70;2252.80;;;;;;4856279;29;20385;-84
2022/02/13 08:21:28;;;;;;;62.10;41.17;;;179.90;2252.80;;;;;;4836079;29;20129;-82
2022/02/13 08:24:49;;;;;;;74.90;51.03;;;180.00;2252.80;;;;;;4838214;29;20050;-83
2022/02/13 08:28:21;;;;;;;59.33;43.00;;;180.00;2252.80;;;;;;4843081;29;20098;-83
2022/02/13 08:31:44;;;;;;;43.00;29.80;;;204.80;2252.80;;;;;;4816213;29;20041;-81
2022/02/13 08:34:37;;;;;;;;;;;205.00;2252.80;;;;;;4825911;29;20034;-83
2022/02/13 08:37:58;;;;;;;37.78;23.13;;;205.20;2252.80;;;;;;4769790;30;19910;-83
2022/02/13 08:41:17;;;;;;;42.80;29.27;;;205.30;2252.80;;;;;;4734918;30;20037;-84
2022/02/13 08:58:43;;;;;;;28.70;20.27;;;230.90;2252.80;;;;;;4664013;30;20097;-85
2022/02/13 09:05:03;;;;;;;26.52;19.35;;;230.70;2252.80;;;;;;4667609;30;20033;-83
2022/02/13 09:07:52;;;;;;;29.77;21.50;;;230.70;2252.80;;;;;;4654419;30;20038;-84
2022/02/13 09:13:57;;;;;;;27.10;17.33;;;230.70;2252.80;;;;;;4701308;30;20034;-83
2022/02/13 09:23:54;;;;;;;29.48;16.92;;;231.00;2252.80;;;;;;4740217;30;20059;-84
2022/02/13 09:30:50;;;;;;;27.20;18.85;;;230.90;2252.80;;;;;;4689170;30;20052;-84
2022/02/13 09:43:59;;;;;;;38.17;23.80;;;231.00;2252.80;;;;;;4771468;30;20119;-86
2022/02/13 09:46:36;;;;;;;35.15;25.10;;;231.00;2252.80;;;;;;4770842;30;20070;-84
2022/02/13 09:50:04;;;;;;;28.10;21.30;;;231.10;2252.80;;;;;;4797400;29;20486;-84
2022/02/13 09:52:33;;;;;;;35.00;23.17;;;231.10;2252.80;;;;;;4797381;29;20552;-83
2022/02/13 09:55:06;;;;;;;33.80;23.45;;;231.20;2252.80;;;;;;4792220;29;20471;-81
2022/02/13 10:00:17;;;;;;;26.60;18.20;;;231.20;2252.80;;;;;;4863847;29;20084;-81
2022/02/13 10:02:44;;;;;;;27.45;19.77;;;231.20;2252.80;;;;;;4862911;29;20029;-79
2022/02/13 10:05:19;;;;;;;25.55;22.20;;;231.10;2252.80;;;;;;4862825;29;20485;-80
2022/02/13 10:07:52;;;;;;;27.00;19.33;;;231.10;2227.20;;;;;;4862735;29;20021;-83
2022/02/13 10:10:18;;;;;;;21.80;16.30;;;231.10;2252.80;;;;;;4862707;29;20052;-79
2022/02/13 10:12:47;;;;;;;32.83;20.02;;;231.10;2252.80;;;;;;4862328;29;20087;-81
2022/02/13 10:15:22;;;;;;;30.45;21.52;;;231.10;2252.80;;;;;;4847430;29;20052;-81
2022/02/13 10:18:00;;;;;;;35.45;26.40;;;231.10;2252.80;;;;;;4878213;29;20029;-80
2022/02/13 10:20:29;;;;;;;30.48;21.98;;;231.20;2252.80;;;;;;4862961;29;20060;-81
2022/02/13 10:22:56;;;;;;;21.17;16.65;;;231.20;2252.80;;;;;;4862392;29;20035;-81
2022/02/13 10:25:38;;;;;;;23.40;18.02;;;231.20;2252.80;;;;;;4875570;29;20048;-83
2022/02/13 10:28:20;;;;;;;28.52;21.52;;;231.20;2252.80;;;;;;4880664;29;20089;-79
2022/02/13 10:30:52;;;;;;;;;;;231.30;2252.80;;;;;;4882230;29;20473;-81
2022/02/13 10:33:35;;;;;;;39.90;28.52;;;231.30;2252.80;;;;;;4881889;29;19955;-82
2022/02/13 10:36:27;;;;;;;34.65;24.67;;;231.30;2227.20;;;;;;4879593;29;20064;-82
2022/02/13 10:38:55;;;;;;;28.15;19.15;;;231.30;2252.80;;;;;;4865397;29;20059;-80
2022/02/13 10:41:52;;;;;;;28.88;19.25;;;231.00;2252.80;;;;;;4879280;29;20132;-83
2022/02/13 10:44:29;;;;;;;33.58;22.15;;;256.10;2252.80;;;;;;4880856;29;20029;-83
2022/02/13 10:46:56;;;;;;;34.53;23.75;;;256.10;2252.80;;;;;;4880630;29;20029;-82
2022/02/13 10:49:23;;;;;;;30.35;21.38;;;256.20;2252.80;;;;;;4880436;29;20033;-83
2022/02/13 10:52:17;;;;;;;26.83;18.55;;;256.30;2227.20;;;;;;4896387;29;20062;-83
2022/02/13 10:54:44;;;;;;;25.25;17.65;;;256.00;2227.20;;;;;;4880101;29;20380;-83
2022/02/13 10:57:14;;;;;;;25.33;18.23;;;256.00;2227.20;;;;;;4880634;29;20559;-80
2022/02/13 10:59:55;;;;;;;33.08;23.30;;;231.30;2252.80;;;;;;4879957;29;20036;-83
2022/02/13 11:19:41;;;;;;;37.35;24.80;;;231.20;2252.80;;;;;;4772016;29;20523;-81
2022/02/13 11:22:13;;;;;;;;;;;231.10;2252.80;;;;;;4770172;30;20145;-83
2022/02/13 11:25:24;;;;;;;27.73;17.75;;;231.10;2252.80;;;;;;4799378;29;20389;-83
2022/02/13 11:28:00;;;;;;;31.38;19.40;;;231.10;2252.80;;;;;;4789999;29;20042;-83
2022/02/13 11:31:16;;;;;;;37.63;23.27;;;231.10;2252.80;;;;;;4802767;29;20492;-83
2022/02/13 11:33:57;;;;;;;35.03;25.02;;;231.20;2252.80;;;;;;4789617;29;20038;-83
2022/02/13 11:37:19;;;;;;;29.85;20.67;;;231.20;2252.80;;;;;;4787515;29;20058;-85
2022/02/13 11:43:08;;;;;;;42.00;26.48;;;231.30;2252.80;;;;;;4856890;29;20137;-83
2022/02/13 11:46:43;;;;;;;38.45;23.70;;;231.30;2252.80;;;;;;4824231;29;20022;-85
2022/02/13 11:49:15;;;;;;;37.80;22.00;;;231.30;2252.80;;;;;;4836926;29;20167;-85
2022/02/13 11:52:00;;;;;;;29.88;21.73;;;231.30;2252.80;;;;;;4898635;29;20051;-84
2022/02/13 11:55:13;;;;;;;35.20;23.77;;;231.30;2252.80;;;;;;4899287;29;20102;-85
2022/02/13 11:58:31;;;;;;;29.38;20.38;;;231.30;2252.80;;;;;;4898371;29;20032;-85
2022/02/13 12:01:00;;;;;;;31.35;20.77;;;231.30;2252.80;;;;;;4897090;29;20066;-84
2022/02/13 12:03:44;;;;;;;35.92;26.63;;;231.30;2252.80;;;;;;4899879;29;20252;-85
2022/02/13 12:06:16;;;;;;;35.63;25.17;;;256.00;2252.80;;;;;;4930976;29;20124;-85
2022/02/13 12:08:45;;;;;;;36.35;24.52;;;231.30;2252.80;;;;;;4918162;29;20023;-85
2022/02/13 12:11:50;;;;;;;34.20;20.88;;;231.30;2252.80;;;;;;4932651;29;20506;-84
2022/02/13 12:14:59;;;;;;;40.45;29.50;;;231.30;2252.80;;;;;;4905438;29;20032;-84
2022/02/13 12:17:26;;;;;;;32.05;25.02;;;231.30;2252.80;;;;;;4900609;29;20036;-84
2022/02/13 12:20:36;;;;;;;40.63;30.02;;;231.30;2252.80;;;;;;4918098;29;20020;-86
2022/02/13 12:23:08;;;;;;;39.03;27.55;;;231.30;2252.80;;;;;;4912314;29;20036;-85
2022/02/13 12:25:41;;;;;;;56.05;38.80;;;231.30;2252.80;;;;;;4917452;29;20423;-85
2022/02/13 12:28:17;;;;;;;45.88;29.80;;;231.30;2252.80;;;;;;4901187;29;20039;-85
2022/02/13 12:30:53;;;;;;;46.10;32.28;;;256.00;2252.80;;;;;;4932793;29;20024;-86
2022/02/13 12:33:25;;;;;;;46.60;30.13;;;256.00;2252.80;;;;;;4909235;29;20058;-85
2022/02/13 12:35:58;;;;;;;40.13;28.63;;;256.00;2252.80;;;;;;4900759;29;20028;-85
2022/02/13 12:38:34;;;;;;;46.90;30.25;;;256.00;2252.80;;;;;;4884196;29;20036;-86
2022/02/13 12:41:05;;;;;;;50.65;32.90;;;256.00;2252.80;;;;;;4916745;29;20028;-85
2022/02/13 12:43:47;;;;;;;45.42;31.05;;;256.10;2252.80;;;;;;4901912;29;20024;-86
2022/02/13 12:46:23;;;;;;;37.60;24.45;;;256.10;2252.80;;;;;;4915947;29;20032;-86
2022/02/13 12:48:50;;;;;;;38.85;27.20;;;256.10;2252.80;;;;;;4901287;29;20028;-85
2022/02/13 12:51:27;;;;;;;40.60;28.35;;;256.10;2252.80;;;;;;4917535;29;20102;-86
2022/02/13 12:53:58;;;;;;;32.45;23.15;;;256.10;2252.80;;;;;;4900366;29;20024;-86
2022/02/13 12:56:29;;;;;;;40.45;27.27;;;256.10;2252.80;;;;;;4890944;29;20024;-86
2022/02/13 13:06:40;;;;;;;36.28;24.30;;;256.10;2252.80;;;;;;4846688;29;20048;-84
2022/02/13 13:09:52;;;;;;;38.90;26.20;;;256.10;2252.80;;;;;;4839488;29;20037;-85
2022/02/13 13:20:23;;;;;;;49.83;35.45;;;256.10;2252.80;;;;;;4923861;29;20044;-86
2022/02/13 13:23:18;;;;;;;47.28;34.17;;;256.10;2252.80;;;;;;4846416;29;20085;-84
2022/02/13 13:26:06;;;;;;;61.90;40.17;;;256.00;2252.80;;;;;;4829760;29;20068;-85
2022/02/13 13:29:30;;;;;;;61.70;40.50;;;256.00;2252.80;;;;;;4845913;29;20026;-83
2022/02/13 13:32:21;;;;;;;62.00;38.20;;;256.00;2252.80;;;;;;4830989;29;20061;-85
2022/02/13 13:34:52;;;;;;;61.45;39.35;;;256.00;2252.80;;;;;;4792033;29;20035;-83
2022/02/13 13:38:05;;;;;;;37.25;27.13;;;256.00;2252.80;;;;;;4871782;29;20032;-83
2022/02/13 13:40:34;;;;;;;49.25;32.10;;;256.00;2252.80;;;;;;4921139;29;20119;-83
2022/02/13 13:43:18;;;;;;;50.08;33.00;;;231.30;2252.80;;;;;;4937832;29;20515;-81
2022/02/13 13:45:54;;;;;;;50.70;33.20;;;231.30;2252.80;;;;;;4937925;29;20468;-83
2022/02/13 13:49:08;;;;;;;62.75;39.88;;;231.30;2252.80;;;;;;4906526;29;20364;-84
2022/02/13 13:58:23;;;;;;;48.90;30.13;;;231.10;2252.80;;;;;;4799530;29;20057;-79
2022/02/13 14:00:55;;;;;;;48.88;32.17;;;231.10;2252.80;;;;;;4786283;29;20046;-81
2022/02/13 14:03:27;;;;;;;54.08;38.17;;;231.30;2252.80;;;;;;4779797;29;20038;-83
2022/02/13 14:06:01;;;;;;;53.92;33.63;;;231.10;2252.80;;;;;;4807518;29;20054;-81
2022/02/13 14:08:28;;;;;;;59.33;36.05;;;231.10;2252.80;;;;;;4794873;29;20046;-82
2022/02/13 14:11:18;;;;;;;53.63;35.72;;;231.10;2252.80;;;;;;4809386;29;20048;-83
2022/02/13 14:14:35;;;;;;;50.15;34.67;;;231.00;2252.80;;;;;;4781727;29;20038;-84
2022/02/13 14:17:50;;;;;;;88.88;52.80;;;231.10;2252.80;;;;;;4791593;29;20096;-83
2022/02/13 14:20:26;;;;;;;69.70;44.03;;;231.10;2252.80;;;;;;4791670;29;20031;-84
2022/02/13 14:29:16;;;;;;;68.75;38.95;;;231.10;2252.80;;;;;;4752775;30;20303;-84
2022/02/13 14:31:45;;;;;;;74.22;47.70;;;231.10;2252.80;;;;;;4770471;30;20270;-82
2022/02/13 14:35:05;;;;;;;69.78;46.80;;;231.20;2252.80;;;;;;4770665;30;20035;-85
2022/02/13 14:37:34;;;;;;;63.60;42.78;;;231.20;2252.80;;;;;;4752564;30;20170;-83
2022/02/13 14:40:00;;;;;;;66.50;42.13;;;231.20;2252.80;;;;;;4781371;29;20030;-80
2022/02/13 14:42:34;;;;;;;53.30;35.08;;;231.20;2252.80;;;;;;4809296;29;20022;-81
2022/02/13 14:45:04;;;;;;;59.78;40.15;;;231.10;2252.80;;;;;;4824392;29;20063;-82
2022/02/13 14:47:50;;;;;;;52.30;36.08;;;231.20;2252.80;;;;;;4816097;29;20033;-81
2022/02/13 14:50:47;;;;;;;53.17;32.80;;;231.10;2252.80;;;;;;4858560;29;20082;-79
2022/02/13 14:53:40;;;;;;;49.00;33.17;;;231.10;2252.80;;;;;;4861436;29;20117;-83
2022/02/13 14:56:07;;;;;;;66.68;46.05;;;231.00;2252.80;;;;;;4848489;29;20041;-82
2022/02/13 14:58:33;;;;;;;47.25;30.60;;;231.10;2252.80;;;;;;4861370;29;20070;-82
2022/02/13 15:01:25;;;;;;;61.50;35.28;;;230.90;2252.80;;;;;;4861564;29;20025;-84
2022/02/13 15:03:52;;;;;;;51.90;32.67;;;230.90;2252.80;;;;;;4894995;29;20059;-80
2022/02/13 15:06:18;;;;;;;54.58;31.77;;;230.90;2252.80;;;;;;4883608;29;20035;-78
2022/02/13 15:08:44;;;;;;;53.88;33.40;;;230.80;2252.80;;;;;;4884238;29;20017;-81
2022/02/13 15:11:12;;;;;;;76.90;48.10;;;230.80;2252.80;;;;;;4883598;29;20473;-84
2022/02/13 15:13:38;;;;;;;67.15;42.65;;;230.80;2252.80;;;;;;4883308;29;20036;-83
2022/02/13 15:16:06;;;;;;;62.88;42.40;;;230.90;2252.80;;;;;;4883990;29;20031;-84
2022/02/13 15:18:34;;;;;;;53.28;37.55;;;230.80;2252.80;;;;;;4867875;29;20536;-84
2022/02/13 15:21:01;;;;;;;62.75;39.92;;;230.80;2252.80;;;;;;4883500;29;20461;-84
2022/02/13 15:23:31;;;;;;;60.42;41.30;;;230.80;2252.80;;;;;;4883271;29;20028;-86
2022/02/13 15:25:58;;;;;;;63.38;39.50;;;230.80;2252.80;;;;;;4893657;29;20131;-85
2022/02/13 15:28:33;;;;;;;49.60;35.38;;;230.70;2252.80;;;;;;4903290;29;20114;-83
2022/02/13 15:31:01;;;;;;;53.90;36.03;;;230.70;2252.80;;;;;;4919457;29;20084;-84
2022/02/13 15:33:29;;;;;;;66.90;45.03;;;230.70;2252.80;;;;;;4917465;29;20043;-83
2022/02/13 15:36:08;;;;;;;137.98;124.13;;;230.70;2252.80;;;;;;4884441;29;20036;-83
2022/02/13 15:38:40;;;;;;;86.75;70.05;;;230.60;2252.80;;;;;;4887383;29;20123;-81
2022/02/13 15:41:21;;;;;;;;;;;230.60;2252.80;;;;;;4934030;29;20137;-83
2022/02/13 15:44:04;;;;;;;74.47;51.85;;;230.60;2252.80;;;;;;4917092;29;19903;-81
2022/02/13 15:47:09;;;;;;;64.30;43.65;;;230.60;2252.80;;;;;;4918137;29;20039;-84
2022/02/13 15:50:37;;;;;;;45.15;36.38;;;230.60;2252.80;;;;;;4915730;29;20032;-85
2022/02/13 15:54:12;;;;;;;52.38;37.15;;;230.50;2252.80;;;;;;4888899;29;20052;-85
2022/02/13 16:00:12;;;;;;;67.68;49.85;;;230.40;2252.80;;;;;;4898994;29;20024;-86
2022/02/13 16:03:00;;;;;;;59.97;42.30;;;230.50;2252.80;;;;;;4897140;29;20037;-85
2022/02/13 16:05:32;;;;;;;75.72;51.28;;;230.40;2252.80;;;;;;4897707;29;20077;-84
2022/02/13 16:11:16;;;;;;;79.65;51.95;;;230.40;2252.80;;;;;;4918497;29;20372;-84
2022/02/13 16:14:40;;;;;;;83.80;62.90;;;205.70;2252.80;;;;;;4918696;29;20035;-85
2022/02/13 16:17:57;;;;;;;77.65;56.05;;;205.70;2252.80;;;;;;4851703;29;20048;-85
2022/02/13 16:20:46;;;;;;;84.85;60.05;;;230.40;2252.80;;;;;;4848351;29;20037;-84
2022/02/13 16:26:03;;;;;;;89.05;59.25;;;230.60;2252.80;;;;;;4860203;29;20052;-85
2022/02/13 16:28:58;;;;;;;67.18;47.05;;;230.50;2252.80;;;;;;4859746;29;20030;-85
2022/02/13 16:31:45;;;;;;;74.70;51.17;;;230.50;2252.80;;;;;;4857381;29;20037;-82
2022/02/13 16:34:17;;;;;;;76.80;50.10;;;256.30;2252.80;;;;;;4845086;29;20037;-85
2022/02/13 16:37:22;;;;;;;94.53;58.05;;;230.50;2252.80;;;;;;4846131;29;20085;-85
2022/02/13 16:40:28;;;;;;;97.18;66.45;;;230.50;2252.80;;;;;;4835859;29;20045;-86
2022/02/13 16:43:16;;;;;;;94.53;55.42;;;230.40;2252.80;;;;;;4866074;29;20049;-86
2022/02/13 16:50:00;;;;;;;54.95;39.38;;;205.50;2252.80;;;;;;4817130;29;20040;-86
2022/02/13 17:00:40;;;;;;;142.45;82.72;;;205.50;2252.80;;;;;;4824017;29;20079;-85
2022/02/13 17:04:37;;;;;;;149.10;92.35;;;205.60;2252.80;;;;;;4840804;29;20037;-83
2022/02/13 17:08:11;;;;;;;78.38;50.00;;;205.50;2252.80;;;;;;4781468;30;20533;-85
2022/02/13 17:10:58;;;;;;;66.10;46.00;;;205.50;2252.80;;;;;;4787517;29;20047;-86
2022/02/13 17:13:46;;;;;;;53.90;34.28;;;205.40;2252.80;;;;;;4773418;30;20039;-87
2022/02/13 17:16:19;;;;;;;50.72;34.17;;;205.30;2252.80;;;;;;4786477;29;20478;-83
2022/02/13 17:18:46;;;;;;;;;;;205.40;2252.80;;;;;;4808036;29;20035;-84
2022/02/13 17:21:45;;;;;;;68.82;45.13;;;205.40;2252.80;;;;;;4806025;29;19955;-82
2022/02/13 17:24:21;;;;;;;72.72;48.88;;;205.30;2252.80;;;;;;4793100;29;20038;-83
2022/02/13 17:26:55;;;;;;;77.03;49.28;;;205.20;2252.80;;;;;;4809882;29;20168;-78
2022/02/13 17:29:54;;;;;;;90.15;58.45;;;205.30;2252.80;;;;;;4807001;29;20023;-83
2022/02/13 17:32:20;;;;;;;51.72;35.03;;;205.30;2252.80;;;;;;4803140;29;20039;-79
2022/02/13 17:34:45;;;;;;;60.80;38.95;;;205.20;2252.80;;;;;;4807102;29;20360;-81
2022/02/13 17:37:12;;;;;;;59.13;37.75;;;205.20;2252.80;;;;;;4824976;29;20391;-79
2022/02/13 17:39:39;;;;;;;52.60;37.22;;;205.20;2252.80;;;;;;4881249;29;20482;-81
2022/02/13 17:42:05;;;;;;;53.35;37.10;;;205.20;2252.80;;;;;;4866258;29;20128;-77
2022/02/13 17:44:31;;;;;;;65.82;44.53;;;205.20;2252.80;;;;;;4881237;29;20021;-80
2022/02/13 17:46:57;;;;;;;86.35;50.45;;;205.20;2252.80;;;;;;4881305;29;20047;-79
2022/02/13 17:49:23;;;;;;;84.63;55.63;;;205.20;2252.80;;;;;;4882834;29;20478;-77
2022/02/13 17:51:49;;;;;;;87.07;56.78;;;205.20;2252.80;;;;;;4884804;29;20027;-79
2022/02/13 17:54:15;;;;;;;119.60;78.55;;;205.10;2252.80;;;;;;4885252;29;20034;-77
2022/02/13 17:56:41;;;;;;;85.40;56.63;;;204.90;2252.80;;;;;;4885010;29;20076;-79
2022/02/13 17:59:08;;;;;;;85.30;52.83;;;204.90;2252.80;;;;;;4883506;29;20060;-80
2022/02/13 18:01:35;;;;;;;90.30;57.55;;;205.00;2252.80;;;;;;4884757;29;20074;-84
2022/02/13 18:04:03;;;;;;;86.20;55.33;;;204.90;2252.80;;;;;;4884785;29;20080;-79
2022/02/13 18:06:29;;;;;;;72.50;47.70;;;204.80;2252.80;;;;;;4884330;29;20029;-80
2022/02/13 18:08:55;;;;;;;74.95;51.35;;;204.90;2252.80;;;;;;4884632;29;20031;-77
2022/02/13 18:11:24;;;;;;;92.90;56.50;;;204.80;2252.80;;;;;;4884443;29;20032;-82
2022/02/13 18:13:50;;;;;;;98.57;65.45;;;204.80;2252.80;;;;;;4884364;29;20473;-81
2022/02/13 18:16:16;;;;;;;102.63;64.55;;;204.90;2252.80;;;;;;4884525;29;20036;-81
2022/02/13 18:18:42;;;;;;;87.78;57.83;;;180.10;2252.80;;;;;;4884172;29;20029;-80
2022/02/13 18:21:09;;;;;;;59.85;39.85;;;180.10;2252.80;;;;;;4884560;29;20048;-80
2022/02/13 18:23:35;;;;;;;40.70;31.10;;;179.90;2252.80;;;;;;4881703;29;20036;-78
2022/02/13 18:26:01;;;;;;;45.10;33.08;;;179.80;2252.80;;;;;;4883891;29;20052;-78
2022/02/13 18:28:27;;;;;;;51.55;34.13;;;179.70;2252.80;;;;;;4883738;29;20417;-78
2022/02/13 18:30:53;;;;;;;57.58;39.58;;;179.90;2252.80;;;;;;4884201;29;20021;-78
2022/02/13 18:33:19;;;;;;;44.67;31.02;;;179.90;2252.80;;;;;;4884095;29;20135;-78
2022/02/13 18:35:45;;;;;;;40.88;28.27;;;179.80;2252.80;;;;;;4884124;29;20039;-79
2022/02/13 18:38:12;;;;;;;43.47;29.25;;;179.90;2252.80;;;;;;4884098;29;20035;-79
2022/02/13 18:40:41;;;;;;;51.47;32.35;;;179.80;2252.80;;;;;;4884081;29;20088;-82
2022/02/13 18:43:06;;;;;;;74.32;44.25;;;179.70;2252.80;;;;;;4885829;29;20036;-84
2022/02/13 18:45:33;;;;;;;71.78;48.22;;;179.80;2252.80;;;;;;4885942;29;20024;-81
2022/02/13 18:48:18;;;;;;;69.95;48.25;;;179.90;2252.80;;;;;;4885800;29;20021;-83
2022/02/13 18:50:50;;;;;;;69.50;49.40;;;180.00;2252.80;;;;;;4896612;29;20033;-82
2022/02/13 18:53:39;;;;;;;56.70;42.38;;;180.00;2252.80;;;;;;4887247;29;20041;-84
2022/02/13 18:56:12;;;;;;;61.03;44.00;;;180.00;2252.80;;;;;;4903573;29;20025;-84
2022/02/13 18:59:00;;;;;;;74.30;47.25;;;180.00;2252.80;;;;;;4881923;29;20044;-83
2022/02/13 19:01:51;;;;;;;98.18;63.72;;;180.00;2252.80;;;;;;4885200;29;20033;-84
2022/02/13 19:04:40;;;;;;;74.70;49.67;;;180.00;2252.80;;;;;;4888889;29;20060;-82
2022/02/13 19:07:46;;;;;;;86.43;51.60;;;179.90;2252.80;;;;;;4898286;29;20033;-81
2022/02/13 19:10:45;;;;;;;53.42;38.13;;;179.70;2252.80;;;;;;4902936;29;20033;-84
2022/02/13 19:13:11;;;;;;;64.32;41.85;;;179.70;2252.80;;;;;;4885777;29;20035;-83
2022/02/13 19:16:35;;;;;;;69.28;42.70;;;179.90;2252.80;;;;;;4871311;29;20085;-82
2022/02/13 19:20:31;;;;;;;1999.90;653.33;;;179.90;2252.80;;;;;;4856231;29;20058;-82
2022/02/13 19:23:36;;;;;;;104.43;48.60;;;180.00;2252.80;;;;;;4807538;29;20039;-82
2022/02/13 19:30:18;;;;;;;67.55;45.45;;;179.80;2252.80;;;;;;4772476;30;20045;-82
2022/02/13 19:33:56;;;;;;;56.38;39.08;;;179.80;2252.80;;;;;;4772171;30;20032;-81
2022/02/13 19:36:57;;;;;;;62.65;45.58;;;179.90;2252.80;;;;;;4771848;30;20489;-82
2022/02/13 19:39:32;;;;;;;94.88;68.18;;;179.90;2252.80;;;;;;4772257;30;20069;-81
2022/02/13 19:41:58;;;;;;;72.93;57.40;;;179.90;2252.80;;;;;;4757628;30;20035;-80
2022/02/13 19:44:28;;;;;;;86.97;57.88;;;179.90;2252.80;;;;;;4757269;30;20077;-81
2022/02/13 19:47:20;;;;;;;101.50;67.40;;;179.90;2252.80;;;;;;4788140;29;20037;-83
2022/02/13 19:49:45;;;;;;;166.63;83.07;;;179.90;2252.80;;;;;;4803378;29;20030;-82
2022/02/13 19:52:11;;;;;;;121.55;66.28;;;179.80;2252.80;;;;;;4827275;29;20026;-81